sensor_id;sensor_type;location;lat;lon;timestamp;P1;durP1;ratioP1;P2;durP2;ratioP2
72974;SDS011;61166;54.228;37.632;2022-10-16T00:01:57;15.93;;;7.57;;
72974;SDS011;61166;54.228;37.632;2022-10-16T00:04:24;15.70;;;7.30;;
72974;SDS011;61166;54.228;37.632;2022-10-16T00:06:50;14.88;;;6.05;;
72974;SDS011;61166;54.228;37.632;2022-10-16T00:09:17;15.03;;;6.33;;
72974;SDS011;61166;54.228;37.632;2022-10-16T00:11:43;12.52;;;6.35;;
72974;SDS011;61166;54.228;37.632;2022-10-16T00:14:11;12.10;;;6.30;;
72974;SDS011;61166;54.228;37.632;2022-10-16T00:16:39;14.88;;;6.85;;
72974;SDS011;61166;54.228;37.632;2022-10-16T00:19:06;29.85;;;11.82;;
72974;SDS011;61166;54.228;37.632;2022-10-16T00:21:33;18.50;;;9.50;;
72974;SDS011;61166;54.228;37.632;2022-10-16T00:24:18;22.90;;;9.75;;
72974;SDS011;61166;54.228;37.632;2022-10-16T00:26:45;20.65;;;9.27;;
72974;SDS011;61166;54.228;37.632;2022-10-16T00:29:11;19.80;;;9.30;;
72974;SDS011;61166;54.228;37.632;2022-10-16T00:31:38;17.95;;;8.80;;
72974;SDS011;61166;54.228;37.632;2022-10-16T00:34:04;23.17;;;9.20;;
72974;SDS011;61166;54.228;37.632;2022-10-16T00:36:31;15.88;;;6.78;;
72974;SDS011;61166;54.228;37.632;2022-10-16T00:38:57;18.30;;;7.63;;
72974;SDS011;61166;54.228;37.632;2022-10-16T00:41:31;16.60;;;8.52;;
72974;SDS011;61166;54.228;37.632;2022-10-16T00:43:59;18.35;;;8.52;;
72974;SDS011;61166;54.228;37.632;2022-10-16T00:49:12;17.48;;;9.02;;
72974;SDS011;61166;54.228;37.632;2022-10-16T00:54:11;17.40;;;9.13;;
72974;SDS011;61166;54.228;37.632;2022-10-16T00:56:42;22.17;;;10.73;;
72974;SDS011;61166;54.228;37.632;2022-10-16T00:59:20;19.97;;;9.23;;
72974;SDS011;61166;54.228;37.632;2022-10-16T01:01:51;20.20;;;9.70;;
72974;SDS011;61166;54.228;37.632;2022-10-16T01:04:18;15.60;;;7.68;;
72974;SDS011;61166;54.228;37.632;2022-10-16T01:09:19;15.68;;;7.95;;
72974;SDS011;61166;54.228;37.632;2022-10-16T01:14:45;15.55;;;7.65;;
72974;SDS011;61166;54.228;37.632;2022-10-16T01:17:15;18.15;;;8.90;;
72974;SDS011;61166;54.228;37.632;2022-10-16T01:19:52;17.85;;;8.38;;
72974;SDS011;61166;54.228;37.632;2022-10-16T01:22:24;21.95;;;9.25;;
72974;SDS011;61166;54.228;37.632;2022-10-16T01:24:57;22.93;;;9.13;;
72974;SDS011;61166;54.228;37.632;2022-10-16T01:27:30;17.60;;;8.38;;
72974;SDS011;61166;54.228;37.632;2022-10-16T01:32:53;21.08;;;9.38;;
72974;SDS011;61166;54.228;37.632;2022-10-16T01:35:26;18.60;;;8.68;;
72974;SDS011;61166;54.228;37.632;2022-10-16T01:40:26;15.10;;;6.38;;
72974;SDS011;61166;54.228;37.632;2022-10-16T01:43:04;17.30;;;7.95;;
72974;SDS011;61166;54.228;37.632;2022-10-16T01:45:34;11.35;;;5.75;;
72974;SDS011;61166;54.228;37.632;2022-10-16T01:48:02;7.00;;;3.08;;
72974;SDS011;61166;54.228;37.632;2022-10-16T01:50:32;10.80;;;5.47;;
72974;SDS011;61166;54.228;37.632;2022-10-16T01:53:03;9.90;;;4.32;;
72974;SDS011;61166;54.228;37.632;2022-10-16T01:55:32;12.07;;;5.57;;
72974;SDS011;61166;54.228;37.632;2022-10-16T01:58:03;8.30;;;3.78;;
72974;SDS011;61166;54.228;37.632;2022-10-16T02:00:34;7.00;;;3.35;;
72974;SDS011;61166;54.228;37.632;2022-10-16T02:03:03;5.37;;;2.03;;
72974;SDS011;61166;54.228;37.632;2022-10-16T02:05:34;7.30;;;3.65;;
72974;SDS011;61166;54.228;37.632;2022-10-16T02:08:07;11.50;;;5.18;;
72974;SDS011;61166;54.228;37.632;2022-10-16T02:10:34;17.42;;;6.43;;
72974;SDS011;61166;54.228;37.632;2022-10-16T02:13:18;14.30;;;6.80;;
72974;SDS011;61166;54.228;37.632;2022-10-16T02:15:50;15.03;;;6.40;;
72974;SDS011;61166;54.228;37.632;2022-10-16T02:18:16;9.65;;;4.65;;
72974;SDS011;61166;54.228;37.632;2022-10-16T02:20:45;14.25;;;6.10;;
72974;SDS011;61166;54.228;37.632;2022-10-16T02:23:30;11.75;;;5.50;;
72974;SDS011;61166;54.228;37.632;2022-10-16T02:26:04;14.57;;;6.45;;
72974;SDS011;61166;54.228;37.632;2022-10-16T02:28:39;16.23;;;7.53;;
72974;SDS011;61166;54.228;37.632;2022-10-16T02:31:12;17.25;;;7.18;;
72974;SDS011;61166;54.228;37.632;2022-10-16T02:33:44;18.38;;;7.90;;
72974;SDS011;61166;54.228;37.632;2022-10-16T02:36:12;16.20;;;7.93;;
72974;SDS011;61166;54.228;37.632;2022-10-16T02:38:39;18.67;;;8.30;;
72974;SDS011;61166;54.228;37.632;2022-10-16T02:41:06;15.50;;;8.43;;
72974;SDS011;61166;54.228;37.632;2022-10-16T02:43:33;17.70;;;8.30;;
72974;SDS011;61166;54.228;37.632;2022-10-16T02:46:00;18.83;;;8.80;;
72974;SDS011;61166;54.228;37.632;2022-10-16T02:48:26;18.23;;;7.47;;
72974;SDS011;61166;54.228;37.632;2022-10-16T02:50:53;17.83;;;6.55;;
72974;SDS011;61166;54.228;37.632;2022-10-16T02:53:19;18.80;;;7.30;;
72974;SDS011;61166;54.228;37.632;2022-10-16T02:55:46;17.08;;;5.82;;
72974;SDS011;61166;54.228;37.632;2022-10-16T02:58:12;14.35;;;6.13;;
72974;SDS011;61166;54.228;37.632;2022-10-16T03:00:39;9.27;;;5.53;;
72974;SDS011;61166;54.228;37.632;2022-10-16T03:03:06;16.88;;;6.85;;
72974;SDS011;61166;54.228;37.632;2022-10-16T03:05:32;12.97;;;5.87;;
72974;SDS011;61166;54.228;37.632;2022-10-16T03:07:59;11.68;;;5.03;;
72974;SDS011;61166;54.228;37.632;2022-10-16T03:10:26;10.35;;;3.92;;
72974;SDS011;61166;54.228;37.632;2022-10-16T03:12:53;16.60;;;7.10;;
72974;SDS011;61166;54.228;37.632;2022-10-16T03:15:19;14.63;;;6.97;;
72974;SDS011;61166;54.228;37.632;2022-10-16T03:17:46;9.03;;;3.87;;
72974;SDS011;61166;54.228;37.632;2022-10-16T03:20:12;13.05;;;5.55;;
72974;SDS011;61166;54.228;37.632;2022-10-16T03:22:39;13.00;;;6.60;;
72974;SDS011;61166;54.228;37.632;2022-10-16T03:25:06;17.52;;;7.63;;
72974;SDS011;61166;54.228;37.632;2022-10-16T03:27:33;18.20;;;7.72;;
72974;SDS011;61166;54.228;37.632;2022-10-16T03:29:59;15.13;;;6.73;;
72974;SDS011;61166;54.228;37.632;2022-10-16T03:32:26;10.55;;;4.00;;
72974;SDS011;61166;54.228;37.632;2022-10-16T03:34:53;15.15;;;7.20;;
72974;SDS011;61166;54.228;37.632;2022-10-16T03:37:19;10.27;;;5.03;;
72974;SDS011;61166;54.228;37.632;2022-10-16T03:39:46;6.63;;;3.35;;
72974;SDS011;61166;54.228;37.632;2022-10-16T03:42:12;11.57;;;5.27;;
72974;SDS011;61166;54.228;37.632;2022-10-16T03:44:39;13.02;;;5.38;;
72974;SDS011;61166;54.228;37.632;2022-10-16T03:47:06;14.75;;;6.38;;
72974;SDS011;61166;54.228;37.632;2022-10-16T03:49:32;15.38;;;6.50;;
72974;SDS011;61166;54.228;37.632;2022-10-16T03:51:59;14.05;;;6.65;;
72974;SDS011;61166;54.228;37.632;2022-10-16T03:54:25;9.03;;;3.83;;
72974;SDS011;61166;54.228;37.632;2022-10-16T03:56:52;16.88;;;6.43;;
72974;SDS011;61166;54.228;37.632;2022-10-16T03:59:18;14.38;;;7.07;;
72974;SDS011;61166;54.228;37.632;2022-10-16T04:01:45;15.60;;;6.93;;
72974;SDS011;61166;54.228;37.632;2022-10-16T04:04:11;14.85;;;7.10;;
72974;SDS011;61166;54.228;37.632;2022-10-16T04:06:38;13.40;;;6.33;;
72974;SDS011;61166;54.228;37.632;2022-10-16T04:09:04;16.10;;;6.60;;
72974;SDS011;61166;54.228;37.632;2022-10-16T04:11:31;14.30;;;5.78;;
72974;SDS011;61166;54.228;37.632;2022-10-16T04:13:57;14.80;;;6.82;;
72974;SDS011;61166;54.228;37.632;2022-10-16T04:16:24;11.55;;;5.85;;
72974;SDS011;61166;54.228;37.632;2022-10-16T04:18:50;16.83;;;6.90;;
72974;SDS011;61166;54.228;37.632;2022-10-16T04:21:17;23.02;;;8.15;;
72974;SDS011;61166;54.228;37.632;2022-10-16T04:23:43;21.95;;;10.93;;
72974;SDS011;61166;54.228;37.632;2022-10-16T04:26:10;52.03;;;22.65;;
72974;SDS011;61166;54.228;37.632;2022-10-16T04:28:36;21.38;;;10.65;;
72974;SDS011;61166;54.228;37.632;2022-10-16T04:31:04;17.97;;;9.40;;
72974;SDS011;61166;54.228;37.632;2022-10-16T04:33:32;26.50;;;10.20;;
72974;SDS011;61166;54.228;37.632;2022-10-16T04:35:59;15.13;;;8.55;;
72974;SDS011;61166;54.228;37.632;2022-10-16T04:38:27;25.00;;;10.45;;
72974;SDS011;61166;54.228;37.632;2022-10-16T04:40:54;28.08;;;12.05;;
72974;SDS011;61166;54.228;37.632;2022-10-16T04:43:21;24.60;;;11.70;;
72974;SDS011;61166;54.228;37.632;2022-10-16T04:45:48;17.55;;;11.20;;
72974;SDS011;61166;54.228;37.632;2022-10-16T04:48:14;24.00;;;14.43;;
72974;SDS011;61166;54.228;37.632;2022-10-16T04:50:41;23.23;;;15.75;;
72974;SDS011;61166;54.228;37.632;2022-10-16T04:53:07;21.48;;;14.43;;
72974;SDS011;61166;54.228;37.632;2022-10-16T04:55:34;23.80;;;15.15;;
72974;SDS011;61166;54.228;37.632;2022-10-16T04:58:00;24.70;;;15.95;;
72974;SDS011;61166;54.228;37.632;2022-10-16T05:00:27;22.40;;;13.75;;
72974;SDS011;61166;54.228;37.632;2022-10-16T05:02:53;18.58;;;13.70;;
72974;SDS011;61166;54.228;37.632;2022-10-16T05:05:20;22.42;;;13.35;;
72974;SDS011;61166;54.228;37.632;2022-10-16T05:07:47;19.27;;;13.73;;
72974;SDS011;61166;54.228;37.632;2022-10-16T05:10:14;18.55;;;12.48;;
72974;SDS011;61166;54.228;37.632;2022-10-16T05:12:40;18.95;;;13.48;;
72974;SDS011;61166;54.228;37.632;2022-10-16T05:15:07;20.67;;;14.82;;
72974;SDS011;61166;54.228;37.632;2022-10-16T05:17:34;16.65;;;12.10;;
72974;SDS011;61166;54.228;37.632;2022-10-16T05:20:03;19.23;;;13.23;;
72974;SDS011;61166;54.228;37.632;2022-10-16T05:22:30;16.83;;;10.97;;
72974;SDS011;61166;54.228;37.632;2022-10-16T05:24:56;23.27;;;13.45;;
72974;SDS011;61166;54.228;37.632;2022-10-16T05:27:23;19.25;;;14.68;;
72974;SDS011;61166;54.228;37.632;2022-10-16T05:29:50;19.55;;;12.70;;
72974;SDS011;61166;54.228;37.632;2022-10-16T05:32:17;23.80;;;14.35;;
72974;SDS011;61166;54.228;37.632;2022-10-16T05:34:44;18.27;;;12.97;;
72974;SDS011;61166;54.228;37.632;2022-10-16T05:37:12;20.67;;;13.27;;
72974;SDS011;61166;54.228;37.632;2022-10-16T05:39:39;19.63;;;12.90;;
72974;SDS011;61166;54.228;37.632;2022-10-16T05:42:05;26.25;;;13.70;;
72974;SDS011;61166;54.228;37.632;2022-10-16T05:44:32;17.55;;;12.68;;
72974;SDS011;61166;54.228;37.632;2022-10-16T05:47:03;18.90;;;11.77;;
72974;SDS011;61166;54.228;37.632;2022-10-16T05:49:30;15.77;;;10.93;;
72974;SDS011;61166;54.228;37.632;2022-10-16T05:51:56;17.30;;;11.68;;
72974;SDS011;61166;54.228;37.632;2022-10-16T05:54:23;22.27;;;14.38;;
72974;SDS011;61166;54.228;37.632;2022-10-16T05:56:49;19.25;;;11.68;;
72974;SDS011;61166;54.228;37.632;2022-10-16T05:59:16;15.87;;;11.57;;
72974;SDS011;61166;54.228;37.632;2022-10-16T06:01:43;17.80;;;11.85;;
72974;SDS011;61166;54.228;37.632;2022-10-16T06:04:09;15.90;;;11.13;;
72974;SDS011;61166;54.228;37.632;2022-10-16T06:06:41;14.55;;;10.38;;
72974;SDS011;61166;54.228;37.632;2022-10-16T06:09:08;16.92;;;11.82;;
72974;SDS011;61166;54.228;37.632;2022-10-16T06:11:35;17.87;;;10.73;;
72974;SDS011;61166;54.228;37.632;2022-10-16T06:14:02;16.02;;;10.77;;
72974;SDS011;61166;54.228;37.632;2022-10-16T06:16:29;14.95;;;9.95;;
72974;SDS011;61166;54.228;37.632;2022-10-16T06:18:55;14.20;;;9.95;;
72974;SDS011;61166;54.228;37.632;2022-10-16T06:21:23;15.27;;;9.95;;
72974;SDS011;61166;54.228;37.632;2022-10-16T06:23:50;16.23;;;10.23;;
72974;SDS011;61166;54.228;37.632;2022-10-16T06:26:18;16.17;;;10.10;;
72974;SDS011;61166;54.228;37.632;2022-10-16T06:28:46;16.38;;;10.23;;
72974;SDS011;61166;54.228;37.632;2022-10-16T06:31:14;13.60;;;9.63;;
72974;SDS011;61166;54.228;37.632;2022-10-16T06:33:41;15.38;;;9.52;;
72974;SDS011;61166;54.228;37.632;2022-10-16T06:36:12;17.73;;;9.73;;
72974;SDS011;61166;54.228;37.632;2022-10-16T06:38:41;14.43;;;10.05;;
72974;SDS011;61166;54.228;37.632;2022-10-16T06:41:08;15.63;;;10.73;;
72974;SDS011;61166;54.228;37.632;2022-10-16T06:43:37;15.43;;;10.40;;
72974;SDS011;61166;54.228;37.632;2022-10-16T06:46:05;13.23;;;9.48;;
72974;SDS011;61166;54.228;37.632;2022-10-16T06:48:33;22.93;;;10.50;;
72974;SDS011;61166;54.228;37.632;2022-10-16T06:51:00;11.23;;;7.70;;
72974;SDS011;61166;54.228;37.632;2022-10-16T06:53:51;14.57;;;7.97;;
72974;SDS011;61166;54.228;37.632;2022-10-16T06:56:29;12.93;;;7.88;;
72974;SDS011;61166;54.228;37.632;2022-10-16T06:58:57;9.45;;;8.05;;
72974;SDS011;61166;54.228;37.632;2022-10-16T07:01:24;12.20;;;7.87;;
72974;SDS011;61166;54.228;37.632;2022-10-16T07:03:52;8.75;;;6.82;;
72974;SDS011;61166;54.228;37.632;2022-10-16T07:06:19;9.90;;;5.88;;
72974;SDS011;61166;54.228;37.632;2022-10-16T07:08:47;8.80;;;5.70;;
72974;SDS011;61166;54.228;37.632;2022-10-16T07:11:15;6.32;;;5.68;;
72974;SDS011;61166;54.228;37.632;2022-10-16T07:13:46;9.13;;;6.43;;
72974;SDS011;61166;54.228;37.632;2022-10-16T07:16:23;8.73;;;6.07;;
72974;SDS011;61166;54.228;37.632;2022-10-16T07:18:51;9.32;;;6.22;;
72974;SDS011;61166;54.228;37.632;2022-10-16T07:21:21;9.70;;;6.00;;
72974;SDS011;61166;54.228;37.632;2022-10-16T07:23:51;8.23;;;5.90;;
72974;SDS011;61166;54.228;37.632;2022-10-16T07:26:18;10.60;;;5.90;;
72974;SDS011;61166;54.228;37.632;2022-10-16T07:28:45;7.80;;;5.47;;
72974;SDS011;61166;54.228;37.632;2022-10-16T07:31:13;10.98;;;7.10;;
72974;SDS011;61166;54.228;37.632;2022-10-16T07:33:41;8.38;;;5.43;;
72974;SDS011;61166;54.228;37.632;2022-10-16T07:36:09;10.68;;;6.35;;
72974;SDS011;61166;54.228;37.632;2022-10-16T07:38:41;6.20;;;5.47;;
72974;SDS011;61166;54.228;37.632;2022-10-16T07:41:09;8.32;;;5.70;;
72974;SDS011;61166;54.228;37.632;2022-10-16T07:43:45;9.25;;;6.10;;
72974;SDS011;61166;54.228;37.632;2022-10-16T07:46:16;6.32;;;5.00;;
72974;SDS011;61166;54.228;37.632;2022-10-16T07:48:43;9.18;;;5.93;;
72974;SDS011;61166;54.228;37.632;2022-10-16T07:51:10;7.43;;;5.43;;
72974;SDS011;61166;54.228;37.632;2022-10-16T07:53:38;6.82;;;5.07;;
72974;SDS011;61166;54.228;37.632;2022-10-16T07:56:05;6.93;;;4.95;;
72974;SDS011;61166;54.228;37.632;2022-10-16T07:58:33;38.20;;;28.98;;
72974;SDS011;61166;54.228;37.632;2022-10-16T08:01:03;7.15;;;5.53;;
72974;SDS011;61166;54.228;37.632;2022-10-16T08:03:31;10.73;;;6.23;;
72974;SDS011;61166;54.228;37.632;2022-10-16T08:05:59;5.65;;;4.93;;
72974;SDS011;61166;54.228;37.632;2022-10-16T08:08:26;7.75;;;5.90;;
72974;SDS011;61166;54.228;37.632;2022-10-16T08:10:53;6.78;;;4.90;;
72974;SDS011;61166;54.228;37.632;2022-10-16T08:13:20;8.43;;;5.78;;
72974;SDS011;61166;54.228;37.632;2022-10-16T08:15:47;7.87;;;6.23;;
72974;SDS011;61166;54.228;37.632;2022-10-16T08:18:14;5.50;;;4.45;;
72974;SDS011;61166;54.228;37.632;2022-10-16T08:20:42;11.25;;;5.20;;
72974;SDS011;61166;54.228;37.632;2022-10-16T08:23:09;7.93;;;7.15;;
72974;SDS011;61166;54.228;37.632;2022-10-16T08:25:37;11.65;;;6.75;;
72974;SDS011;61166;54.228;37.632;2022-10-16T08:28:04;12.63;;;7.30;;
72974;SDS011;61166;54.228;37.632;2022-10-16T08:30:32;10.63;;;6.47;;
72974;SDS011;61166;54.228;37.632;2022-10-16T08:32:58;17.90;;;9.07;;
72974;SDS011;61166;54.228;37.632;2022-10-16T08:35:25;6.45;;;5.30;;
72974;SDS011;61166;54.228;37.632;2022-10-16T08:37:52;13.23;;;5.22;;
72974;SDS011;61166;54.228;37.632;2022-10-16T08:40:28;7.33;;;4.77;;
72974;SDS011;61166;54.228;37.632;2022-10-16T08:45:50;10.38;;;5.68;;
72974;SDS011;61166;54.228;37.632;2022-10-16T08:51:29;6.05;;;4.47;;
72974;SDS011;61166;54.228;37.632;2022-10-16T08:53:59;5.87;;;4.60;;
72974;SDS011;61166;54.228;37.632;2022-10-16T08:56:29;5.95;;;4.10;;
72974;SDS011;61166;54.228;37.632;2022-10-16T08:58:57;10.23;;;4.28;;
72974;SDS011;61166;54.228;37.632;2022-10-16T09:01:34;6.32;;;4.28;;
72974;SDS011;61166;54.228;37.632;2022-10-16T09:09:58;5.55;;;4.95;;
72974;SDS011;61166;54.228;37.632;2022-10-16T09:12:32;6.05;;;3.45;;
72974;SDS011;61166;54.228;37.632;2022-10-16T09:17:37;8.75;;;3.10;;
72974;SDS011;61166;54.228;37.632;2022-10-16T09:20:12;7.63;;;3.10;;
72974;SDS011;61166;54.228;37.632;2022-10-16T09:22:40;7.32;;;3.60;;
72974;SDS011;61166;54.228;37.632;2022-10-16T09:25:11;8.88;;;4.70;;
72974;SDS011;61166;54.228;37.632;2022-10-16T09:27:43;21.42;;;9.60;;
72974;SDS011;61166;54.228;37.632;2022-10-16T09:30:13;11.93;;;5.55;;
72974;SDS011;61166;54.228;37.632;2022-10-16T09:32:42;9.90;;;5.00;;
72974;SDS011;61166;54.228;37.632;2022-10-16T09:35:21;14.20;;;4.20;;
72974;SDS011;61166;54.228;37.632;2022-10-16T09:37:53;30.75;;;9.63;;
72974;SDS011;61166;54.228;37.632;2022-10-16T09:40:30;11.43;;;5.47;;
72974;SDS011;61166;54.228;37.632;2022-10-16T09:43:41;8.63;;;4.03;;
72974;SDS011;61166;54.228;37.632;2022-10-16T09:46:38;8.57;;;4.00;;
72974;SDS011;61166;54.228;37.632;2022-10-16T09:48:56;7.20;;;4.00;;
72974;SDS011;61166;54.228;37.632;2022-10-16T09:51:25;7.03;;;3.65;;
72974;SDS011;61166;54.228;37.632;2022-10-16T09:53:54;5.80;;;3.25;;
72974;SDS011;61166;54.228;37.632;2022-10-16T09:56:25;8.00;;;3.78;;
72974;SDS011;61166;54.228;37.632;2022-10-16T09:59:00;6.37;;;2.87;;
72974;SDS011;61166;54.228;37.632;2022-10-16T10:01:36;7.72;;;3.47;;
72974;SDS011;61166;54.228;37.632;2022-10-16T10:04:04;4.90;;;3.17;;
72974;SDS011;61166;54.228;37.632;2022-10-16T10:06:36;7.75;;;2.95;;
72974;SDS011;61166;54.228;37.632;2022-10-16T10:11:50;13.10;;;4.30;;
72974;SDS011;61166;54.228;37.632;2022-10-16T10:14:34;12.60;;;4.88;;
72974;SDS011;61166;54.228;37.632;2022-10-16T10:24:56;8.00;;;3.30;;
72974;SDS011;61166;54.228;37.632;2022-10-16T10:27:25;10.75;;;4.18;;
72974;SDS011;61166;54.228;37.632;2022-10-16T10:30:04;9.38;;;4.00;;
72974;SDS011;61166;54.228;37.632;2022-10-16T10:35:48;6.93;;;3.00;;
72974;SDS011;61166;54.228;37.632;2022-10-16T10:38:20;7.93;;;3.60;;
72974;SDS011;61166;54.228;37.632;2022-10-16T10:46:47;9.50;;;4.65;;
72974;SDS011;61166;54.228;37.632;2022-10-16T10:55:00;10.77;;;3.90;;
72974;SDS011;61166;54.228;37.632;2022-10-16T10:57:40;12.50;;;4.00;;
72974;SDS011;61166;54.228;37.632;2022-10-16T11:00:28;5.93;;;3.35;;
72974;SDS011;61166;54.228;37.632;2022-10-16T11:06:11;6.00;;;2.90;;
72974;SDS011;61166;54.228;37.632;2022-10-16T11:08:51;6.78;;;3.17;;
72974;SDS011;61166;54.228;37.632;2022-10-16T11:11:31;11.30;;;5.72;;
72974;SDS011;61166;54.228;37.632;2022-10-16T11:14:19;7.97;;;4.03;;
72974;SDS011;61166;54.228;37.632;2022-10-16T11:21:47;11.02;;;4.75;;
72974;SDS011;61166;54.228;37.632;2022-10-16T11:24:30;6.13;;;2.88;;
72974;SDS011;61166;54.228;37.632;2022-10-16T11:27:04;10.52;;;5.10;;
72974;SDS011;61166;54.228;37.632;2022-10-16T11:29:35;10.38;;;3.80;;
72974;SDS011;61166;54.228;37.632;2022-10-16T11:32:18;5.90;;;3.60;;
72974;SDS011;61166;54.228;37.632;2022-10-16T11:34:50;7.25;;;3.50;;
72974;SDS011;61166;54.228;37.632;2022-10-16T11:37:23;10.75;;;4.32;;
72974;SDS011;61166;54.228;37.632;2022-10-16T11:39:58;12.60;;;5.75;;
72974;SDS011;61166;54.228;37.632;2022-10-16T11:42:37;7.38;;;3.55;;
72974;SDS011;61166;54.228;37.632;2022-10-16T11:48:00;7.78;;;4.07;;
72974;SDS011;61166;54.228;37.632;2022-10-16T11:50:43;8.45;;;3.97;;
72974;SDS011;61166;54.228;37.632;2022-10-16T11:53:24;9.73;;;3.58;;
72974;SDS011;61166;54.228;37.632;2022-10-16T11:55:56;7.68;;;3.47;;
72974;SDS011;61166;54.228;37.632;2022-10-16T12:00:54;6.68;;;3.38;;
72974;SDS011;61166;54.228;37.632;2022-10-16T12:03:42;10.27;;;4.50;;
72974;SDS011;61166;54.228;37.632;2022-10-16T12:08:57;6.75;;;3.13;;
72974;SDS011;61166;54.228;37.632;2022-10-16T12:16:33;8.45;;;3.58;;
72974;SDS011;61166;54.228;37.632;2022-10-16T12:19:13;8.80;;;3.70;;
72974;SDS011;61166;54.228;37.632;2022-10-16T12:21:42;6.40;;;3.85;;
72974;SDS011;61166;54.228;37.632;2022-10-16T12:26:48;7.88;;;4.28;;
72974;SDS011;61166;54.228;37.632;2022-10-16T12:29:26;8.90;;;4.00;;
72974;SDS011;61166;54.228;37.632;2022-10-16T12:31:58;11.18;;;3.90;;
72974;SDS011;61166;54.228;37.632;2022-10-16T12:36:54;11.37;;;5.10;;
72974;SDS011;61166;54.228;37.632;2022-10-16T12:39:33;9.25;;;4.55;;
72974;SDS011;61166;54.228;37.632;2022-10-16T12:42:03;7.47;;;3.83;;
72974;SDS011;61166;54.228;37.632;2022-10-16T12:44:32;8.10;;;3.72;;
72974;SDS011;61166;54.228;37.632;2022-10-16T12:47:01;9.20;;;4.18;;
72974;SDS011;61166;54.228;37.632;2022-10-16T12:51:56;11.32;;;4.80;;
72974;SDS011;61166;54.228;37.632;2022-10-16T13:02:39;8.37;;;4.53;;
72974;SDS011;61166;54.228;37.632;2022-10-16T13:14:32;19.35;;;8.98;;
72974;SDS011;61166;54.228;37.632;2022-10-16T13:25:04;5.60;;;3.42;;
72974;SDS011;61166;54.228;37.632;2022-10-16T13:28:00;6.60;;;3.70;;
72974;SDS011;61166;54.228;37.632;2022-10-16T13:30:33;6.30;;;2.90;;
72974;SDS011;61166;54.228;37.632;2022-10-16T13:33:04;7.38;;;3.78;;
72974;SDS011;61166;54.228;37.632;2022-10-16T13:35:53;7.57;;;4.18;;
72974;SDS011;61166;54.228;37.632;2022-10-16T13:38:22;15.38;;;5.25;;
72974;SDS011;61166;54.228;37.632;2022-10-16T13:40:52;10.15;;;4.50;;
72974;SDS011;61166;54.228;37.632;2022-10-16T13:46:11;14.93;;;6.80;;
72974;SDS011;61166;54.228;37.632;2022-10-16T13:48:40;11.52;;;5.50;;
72974;SDS011;61166;54.228;37.632;2022-10-16T13:51:14;5.88;;;2.53;;
72974;SDS011;61166;54.228;37.632;2022-10-16T13:53:44;12.07;;;4.53;;
72974;SDS011;61166;54.228;37.632;2022-10-16T13:56:13;16.10;;;6.75;;
72974;SDS011;61166;54.228;37.632;2022-10-16T13:58:41;13.23;;;5.72;;
72974;SDS011;61166;54.228;37.632;2022-10-16T14:01:18;9.38;;;5.03;;
72974;SDS011;61166;54.228;37.632;2022-10-16T14:03:59;16.00;;;5.30;;
72974;SDS011;61166;54.228;37.632;2022-10-16T14:06:32;15.75;;;5.38;;
72974;SDS011;61166;54.228;37.632;2022-10-16T14:09:19;11.55;;;3.97;;
72974;SDS011;61166;54.228;37.632;2022-10-16T14:11:55;12.55;;;5.22;;
72974;SDS011;61166;54.228;37.632;2022-10-16T14:14:26;15.43;;;6.40;;
72974;SDS011;61166;54.228;37.632;2022-10-16T14:17:00;18.85;;;7.38;;
72974;SDS011;61166;54.228;37.632;2022-10-16T14:19:28;15.65;;;5.28;;
72974;SDS011;61166;54.228;37.632;2022-10-16T14:21:56;18.67;;;6.05;;
72974;SDS011;61166;54.228;37.632;2022-10-16T14:24:26;12.45;;;5.53;;
72974;SDS011;61166;54.228;37.632;2022-10-16T14:26:57;19.70;;;8.50;;
72974;SDS011;61166;54.228;37.632;2022-10-16T14:29:25;28.23;;;8.57;;
72974;SDS011;61166;54.228;37.632;2022-10-16T14:36:56;26.35;;;10.63;;
72974;SDS011;61166;54.228;37.632;2022-10-16T14:39:24;35.67;;;13.32;;
72974;SDS011;61166;54.228;37.632;2022-10-16T14:41:52;37.95;;;14.75;;
72974;SDS011;61166;54.228;37.632;2022-10-16T14:44:22;29.15;;;12.02;;
72974;SDS011;61166;54.228;37.632;2022-10-16T14:46:54;26.73;;;13.02;;
72974;SDS011;61166;54.228;37.632;2022-10-16T14:49:21;31.90;;;13.23;;
72974;SDS011;61166;54.228;37.632;2022-10-16T14:51:49;32.55;;;13.48;;
72974;SDS011;61166;54.228;37.632;2022-10-16T14:54:17;45.40;;;17.45;;
72974;SDS011;61166;54.228;37.632;2022-10-16T14:56:51;19.58;;;8.15;;
72974;SDS011;61166;54.228;37.632;2022-10-16T14:59:29;16.20;;;5.72;;
72974;SDS011;61166;54.228;37.632;2022-10-16T15:01:56;14.80;;;6.60;;
72974;SDS011;61166;54.228;37.632;2022-10-16T15:04:23;18.45;;;7.18;;
72974;SDS011;61166;54.228;37.632;2022-10-16T15:06:50;15.35;;;6.93;;
72974;SDS011;61166;54.228;37.632;2022-10-16T15:09:16;17.00;;;7.10;;
72974;SDS011;61166;54.228;37.632;2022-10-16T15:11:43;17.27;;;7.60;;
72974;SDS011;61166;54.228;37.632;2022-10-16T15:14:11;14.27;;;7.65;;
72974;SDS011;61166;54.228;37.632;2022-10-16T15:16:41;16.40;;;6.63;;
72974;SDS011;61166;54.228;37.632;2022-10-16T15:19:08;15.63;;;7.75;;
72974;SDS011;61166;54.228;37.632;2022-10-16T15:21:34;17.73;;;7.32;;
72974;SDS011;61166;54.228;37.632;2022-10-16T15:24:01;13.15;;;6.50;;
72974;SDS011;61166;54.228;37.632;2022-10-16T15:26:28;60.13;;;24.20;;
72974;SDS011;61166;54.228;37.632;2022-10-16T15:28:55;32.50;;;14.77;;
72974;SDS011;61166;54.228;37.632;2022-10-16T15:31:22;23.75;;;11.13;;
72974;SDS011;61166;54.228;37.632;2022-10-16T15:33:50;28.63;;;12.13;;
72974;SDS011;61166;54.228;37.632;2022-10-16T15:36:24;40.28;;;17.92;;
72974;SDS011;61166;54.228;37.632;2022-10-16T15:38:54;78.45;;;36.55;;
72974;SDS011;61166;54.228;37.632;2022-10-16T15:41:22;38.78;;;16.00;;
72974;SDS011;61166;54.228;37.632;2022-10-16T15:43:49;46.88;;;18.13;;
72974;SDS011;61166;54.228;37.632;2022-10-16T15:46:19;38.03;;;15.93;;
72974;SDS011;61166;54.228;37.632;2022-10-16T15:48:48;29.52;;;13.57;;
72974;SDS011;61166;54.228;37.632;2022-10-16T15:51:17;42.28;;;17.67;;
72974;SDS011;61166;54.228;37.632;2022-10-16T15:53:44;36.00;;;13.63;;
72974;SDS011;61166;54.228;37.632;2022-10-16T15:56:10;39.70;;;16.55;;
72974;SDS011;61166;54.228;37.632;2022-10-16T15:58:37;44.95;;;16.67;;
72974;SDS011;61166;54.228;37.632;2022-10-16T16:01:04;36.25;;;15.05;;
72974;SDS011;61166;54.228;37.632;2022-10-16T16:03:31;48.40;;;17.88;;
72974;SDS011;61166;54.228;37.632;2022-10-16T16:05:58;38.40;;;17.13;;
72974;SDS011;61166;54.228;37.632;2022-10-16T16:08:30;32.05;;;14.70;;
72974;SDS011;61166;54.228;37.632;2022-10-16T16:10:57;19.50;;;9.43;;
72974;SDS011;61166;54.228;37.632;2022-10-16T16:13:28;14.55;;;8.02;;
72974;SDS011;61166;54.228;37.632;2022-10-16T16:15:55;17.58;;;7.55;;
72974;SDS011;61166;54.228;37.632;2022-10-16T16:18:21;17.13;;;7.00;;
72974;SDS011;61166;54.228;37.632;2022-10-16T16:20:48;25.50;;;8.52;;
72974;SDS011;61166;54.228;37.632;2022-10-16T16:23:14;20.98;;;8.73;;
72974;SDS011;61166;54.228;37.632;2022-10-16T16:25:41;21.63;;;11.57;;
72974;SDS011;61166;54.228;37.632;2022-10-16T16:28:07;15.85;;;7.28;;
72974;SDS011;61166;54.228;37.632;2022-10-16T16:30:34;22.27;;;9.02;;
72974;SDS011;61166;54.228;37.632;2022-10-16T16:33:01;24.45;;;12.18;;
72974;SDS011;61166;54.228;37.632;2022-10-16T16:35:27;21.05;;;8.55;;